sensor_id;sensor_type;location;lat;lon;timestamp;pressure;altitude;pressure_sealevel;temperature;humidity
61908;BME280;47864;52.526;19.672;2023-02-03T00:02:01;101416.50;;;0.15;100.00
61908;BME280;47864;52.526;19.672;2023-02-03T00:04:03;101421.94;;;0.09;100.00
61908;BME280;47864;52.526;19.672;2023-02-03T00:06:04;101407.63;;;-0.01;100.00
61908;BME280;47864;52.526;19.672;2023-02-03T00:08:06;101417.84;;;0.04;100.00
61908;BME280;47864;52.526;19.672;2023-02-03T00:10:09;101420.56;;;0.00;100.00
61908;BME280;47864;52.526;19.672;2023-02-03T00:12:10;101422.84;;;-0.12;100.00
61908;BME280;47864;52.526;19.672;2023-02-03T00:14:12;101417.31;;;-0.05;100.00
61908;BME280;47864;52.526;19.672;2023-02-03T00:16:14;101398.00;;;-0.21;100.00
61908;BME280;47864;52.526;19.672;2023-02-03T00:18:15;101416.72;;;-0.11;100.00
61908;BME280;47864;52.526;19.672;2023-02-03T00:20:17;101379.91;;;-0.46;100.00
61908;BME280;47864;52.526;19.672;2023-02-03T00:22:19;101418.97;;;-0.24;100.00
61908;BME280;47864;52.526;19.672;2023-02-03T00:24:20;101428.16;;;-0.35;100.00
61908;BME280;47864;52.526;19.672;2023-02-03T00:26:22;101424.94;;;-0.42;100.00
61908;BME280;47864;52.526;19.672;2023-02-03T00:28:23;101422.56;;;-0.48;100.00
61908;BME280;47864;52.526;19.672;2023-02-03T00:30:25;101393.78;;;-0.67;100.00
61908;BME280;47864;52.526;19.672;2023-02-03T00:32:28;101430.03;;;-0.61;100.00
61908;BME280;47864;52.526;19.672;2023-02-03T00:34:29;101435.28;;;-0.62;100.00
61908;BME280;47864;52.526;19.672;2023-02-03T00:36:31;101426.00;;;-0.69;100.00
61908;BME280;47864;52.526;19.672;2023-02-03T00:38:33;101411.81;;;-0.84;100.00
61908;BME280;47864;52.526;19.672;2023-02-03T00:40:35;101403.81;;;-1.01;100.00
61908;BME280;47864;52.526;19.672;2023-02-03T00:42:36;101437.25;;;-0.91;100.00
61908;BME280;47864;52.526;19.672;2023-02-03T00:44:37;101440.00;;;-0.95;100.00
61908;BME280;47864;52.526;19.672;2023-02-03T00:46:39;101437.66;;;-1.01;100.00
61908;BME280;47864;52.526;19.672;2023-02-03T00:48:40;101400.13;;;-1.19;100.00
61908;BME280;47864;52.526;19.672;2023-02-03T00:50:45;101434.44;;;-1.08;100.00
61908;BME280;47864;52.526;19.672;2023-02-03T00:52:47;101424.91;;;-1.09;100.00
61908;BME280;47864;52.526;19.672;2023-02-03T00:54:48;101421.69;;;-1.16;100.00
61908;BME280;47864;52.526;19.672;2023-02-03T00:56:50;101399.59;;;-1.29;100.00
61908;BME280;47864;52.526;19.672;2023-02-03T00:58:51;101384.56;;;-1.44;100.00
61908;BME280;47864;52.526;19.672;2023-02-03T01:00:54;101411.50;;;-1.22;100.00
61908;BME280;47864;52.526;19.672;2023-02-03T01:02:56;101381.09;;;-1.44;100.00
61908;BME280;47864;52.526;19.672;2023-02-03T01:04:57;101382.63;;;-1.39;100.00
61908;BME280;47864;52.526;19.672;2023-02-03T01:06:59;101405.34;;;-1.19;100.00
61908;BME280;47864;52.526;19.672;2023-02-03T01:09:01;101381.28;;;-1.26;100.00
61908;BME280;47864;52.526;19.672;2023-02-03T01:11:13;101376.69;;;-1.19;100.00
61908;BME280;47864;52.526;19.672;2023-02-03T01:13:15;101358.91;;;-1.31;100.00
61908;BME280;47864;52.526;19.672;2023-02-03T01:15:16;101398.38;;;-1.19;100.00
61908;BME280;47864;52.526;19.672;2023-02-03T01:17:18;101393.84;;;-1.13;100.00
61908;BME280;47864;52.526;19.672;2023-02-03T01:19:20;101383.00;;;-1.25;100.00
61908;BME280;47864;52.526;19.672;2023-02-03T01:21:23;101373.47;;;-1.26;100.00
61908;BME280;47864;52.526;19.672;2023-02-03T01:23:26;101394.69;;;-1.13;100.00
61908;BME280;47864;52.526;19.672;2023-02-03T01:25:27;101392.94;;;-1.12;100.00
61908;BME280;47864;52.526;19.672;2023-02-03T01:27:30;101389.09;;;-1.26;100.00
61908;BME280;47864;52.526;19.672;2023-02-03T01:29:32;101359.22;;;-1.39;100.00
61908;BME280;47864;52.526;19.672;2023-02-03T01:31:39;101380.72;;;-1.34;100.00
61908;BME280;47864;52.526;19.672;2023-02-03T01:33:41;101379.03;;;-1.35;100.00
61908;BME280;47864;52.526;19.672;2023-02-03T01:35:43;101335.06;;;-1.66;100.00
61908;BME280;47864;52.526;19.672;2023-02-03T01:37:44;101348.50;;;-1.55;100.00
61908;BME280;47864;52.526;19.672;2023-02-03T01:39:46;101330.97;;;-1.73;100.00
61908;BME280;47864;52.526;19.672;2023-02-03T01:41:47;101376.38;;;-1.33;100.00
61908;BME280;47864;52.526;19.672;2023-02-03T01:43:52;101372.00;;;-1.33;100.00
61908;BME280;47864;52.526;19.672;2023-02-03T01:45:54;101368.44;;;-1.30;100.00
61908;BME280;47864;52.526;19.672;2023-02-03T01:47:57;101369.97;;;-1.25;100.00
61908;BME280;47864;52.526;19.672;2023-02-03T01:52:11;101356.44;;;-1.34;100.00
61908;BME280;47864;52.526;19.672;2023-02-03T01:54:35;101378.78;;;-1.29;100.00
61908;BME280;47864;52.526;19.672;2023-02-03T01:56:43;101372.00;;;-1.33;100.00
61908;BME280;47864;52.526;19.672;2023-02-03T01:58:46;101373.59;;;-1.29;100.00
61908;BME280;47864;52.526;19.672;2023-02-03T02:00:50;101352.66;;;-1.26;100.00
61908;BME280;47864;52.526;19.672;2023-02-03T02:02:52;101355.69;;;-1.15;100.00
61908;BME280;47864;52.526;19.672;2023-02-03T02:05:00;101366.28;;;-1.19;100.00
61908;BME280;47864;52.526;19.672;2023-02-03T02:07:04;101357.91;;;-1.50;100.00
61908;BME280;47864;52.526;19.672;2023-02-03T02:09:06;101349.94;;;-1.46;100.00
61908;BME280;47864;52.526;19.672;2023-02-03T02:11:09;101352.19;;;-1.37;100.00
61908;BME280;47864;52.526;19.672;2023-02-03T02:13:11;101324.59;;;-1.64;100.00
61908;BME280;47864;52.526;19.672;2023-02-03T02:15:13;101344.69;;;-1.44;100.00
61908;BME280;47864;52.526;19.672;2023-02-03T02:20:31;101320.41;;;-1.68;100.00
61908;BME280;47864;52.526;19.672;2023-02-03T02:23:10;101324.19;;;-1.77;100.00
61908;BME280;47864;52.526;19.672;2023-02-03T02:32:51;101328.00;;;-1.87;100.00
61908;BME280;47864;52.526;19.672;2023-02-03T02:35:03;101331.31;;;-1.82;100.00
61908;BME280;47864;52.526;19.672;2023-02-03T02:37:23;101336.38;;;-1.79;100.00
61908;BME280;47864;52.526;19.672;2023-02-03T02:39:45;101336.97;;;-1.71;100.00
61908;BME280;47864;52.526;19.672;2023-02-03T02:44:24;101347.53;;;-1.75;100.00
61908;BME280;47864;52.526;19.672;2023-02-03T02:46:34;101343.03;;;-1.70;100.00
61908;BME280;47864;52.526;19.672;2023-02-03T02:48:48;101339.34;;;-1.65;100.00
61908;BME280;47864;52.526;19.672;2023-02-03T02:50:55;101333.31;;;-1.65;100.00
61908;BME280;47864;52.526;19.672;2023-02-03T02:52:58;101296.25;;;-1.72;100.00
61908;BME280;47864;52.526;19.672;2023-02-03T02:55:04;101313.69;;;-1.50;100.00
61908;BME280;47864;52.526;19.672;2023-02-03T02:57:10;101308.34;;;-1.47;100.00
61908;BME280;47864;52.526;19.672;2023-02-03T02:59:13;101301.03;;;-1.60;100.00
61908;BME280;47864;52.526;19.672;2023-02-03T03:01:15;101275.81;;;-1.58;100.00
61908;BME280;47864;52.526;19.672;2023-02-03T03:03:22;101304.13;;;-1.27;100.00
61908;BME280;47864;52.526;19.672;2023-02-03T03:05:24;101293.34;;;-1.18;100.00
61908;BME280;47864;52.526;19.672;2023-02-03T03:07:27;101267.00;;;-1.32;100.00
61908;BME280;47864;52.526;19.672;2023-02-03T03:09:41;101291.66;;;-1.19;100.00
61908;BME280;47864;52.526;19.672;2023-02-03T03:11:49;101278.94;;;-1.26;100.00
61908;BME280;47864;52.526;19.672;2023-02-03T03:13:53;101264.78;;;-1.41;100.00
61908;BME280;47864;52.526;19.672;2023-02-03T03:15:56;101259.06;;;-1.50;100.00
61908;BME280;47864;52.526;19.672;2023-02-03T03:18:06;101279.19;;;-1.32;100.00
61908;BME280;47864;52.526;19.672;2023-02-03T03:20:17;101256.50;;;-1.52;100.00
61908;BME280;47864;52.526;19.672;2023-02-03T03:22:24;101279.44;;;-1.40;100.00
61908;BME280;47864;52.526;19.672;2023-02-03T03:24:30;101277.84;;;-1.21;100.00
61908;BME280;47864;52.526;19.672;2023-02-03T03:26:45;101273.97;;;-1.10;100.00
61908;BME280;47864;52.526;19.672;2023-02-03T03:29:08;101286.69;;;-1.03;100.00
61908;BME280;47864;52.526;19.672;2023-02-03T03:31:11;101286.81;;;-1.06;100.00
61908;BME280;47864;52.526;19.672;2023-02-03T03:33:13;101264.59;;;-1.15;100.00
61908;BME280;47864;52.526;19.672;2023-02-03T03:35:14;101274.22;;;-1.17;100.00
61908;BME280;47864;52.526;19.672;2023-02-03T03:37:32;101272.28;;;-1.11;100.00
61908;BME280;47864;52.526;19.672;2023-02-03T03:39:48;101273.31;;;-1.16;100.00
61908;BME280;47864;52.526;19.672;2023-02-03T03:42:01;101269.38;;;-1.26;100.00
61908;BME280;47864;52.526;19.672;2023-02-03T03:44:10;101259.56;;;-1.41;100.00
61908;BME280;47864;52.526;19.672;2023-02-03T03:46:18;101267.38;;;-1.41;100.00
61908;BME280;47864;52.526;19.672;2023-02-03T03:48:33;101263.84;;;-1.40;100.00
61908;BME280;47864;52.526;19.672;2023-02-03T03:50:42;101225.00;;;-1.66;100.00
61908;BME280;47864;52.526;19.672;2023-02-03T03:52:46;101267.25;;;-1.61;100.00
61908;BME280;47864;52.526;19.672;2023-02-03T03:54:51;101265.31;;;-1.56;100.00
61908;BME280;47864;52.526;19.672;2023-02-03T03:57:14;101251.88;;;-1.44;100.00
61908;BME280;47864;52.526;19.672;2023-02-03T03:59:21;101253.50;;;-1.41;100.00
61908;BME280;47864;52.526;19.672;2023-02-03T04:01:24;101257.91;;;-1.43;100.00
61908;BME280;47864;52.526;19.672;2023-02-03T04:03:47;101254.09;;;-1.57;100.00
61908;BME280;47864;52.526;19.672;2023-02-03T04:05:50;101236.34;;;-1.69;100.00
61908;BME280;47864;52.526;19.672;2023-02-03T04:07:52;101242.56;;;-1.49;100.00
61908;BME280;47864;52.526;19.672;2023-02-03T04:09:53;101236.31;;;-1.45;100.00
61908;BME280;47864;52.526;19.672;2023-02-03T04:11:55;101227.06;;;-1.52;100.00
61908;BME280;47864;52.526;19.672;2023-02-03T04:13:56;101242.50;;;-1.26;100.00
61908;BME280;47864;52.526;19.672;2023-02-03T04:15:58;101223.84;;;-1.37;100.00
61908;BME280;47864;52.526;19.672;2023-02-03T04:18:00;101237.41;;;-1.29;100.00
61908;BME280;47864;52.526;19.672;2023-02-03T04:20:03;101237.00;;;-1.19;100.00
61908;BME280;47864;52.526;19.672;2023-02-03T04:22:05;101235.00;;;-1.12;100.00
61908;BME280;47864;52.526;19.672;2023-02-03T04:24:06;101218.13;;;-1.24;100.00
61908;BME280;47864;52.526;19.672;2023-02-03T04:26:08;101235.00;;;-1.12;100.00
61908;BME280;47864;52.526;19.672;2023-02-03T04:28:09;101225.13;;;-1.04;100.00
61908;BME280;47864;52.526;19.672;2023-02-03T04:30:12;101209.50;;;-1.04;100.00
61908;BME280;47864;52.526;19.672;2023-02-03T04:32:14;101232.19;;;-0.86;100.00
61908;BME280;47864;52.526;19.672;2023-02-03T04:34:15;101229.84;;;-0.92;100.00
61908;BME280;47864;52.526;19.672;2023-02-03T04:36:17;101200.25;;;-1.11;100.00
61908;BME280;47864;52.526;19.672;2023-02-03T04:38:18;101226.00;;;-0.83;100.00
61908;BME280;47864;52.526;19.672;2023-02-03T04:40:20;101226.13;;;-0.86;100.00
61908;BME280;47864;52.526;19.672;2023-02-03T04:42:22;101193.50;;;-0.95;100.00
61908;BME280;47864;52.526;19.672;2023-02-03T04:44:23;101223.22;;;-0.79;100.00
61908;BME280;47864;52.526;19.672;2023-02-03T04:46:25;101230.13;;;-0.78;100.00
61908;BME280;47864;52.526;19.672;2023-02-03T04:48:26;101222.94;;;-0.72;100.00
61908;BME280;47864;52.526;19.672;2023-02-03T04:50:28;101228.09;;;-0.71;100.00
61908;BME280;47864;52.526;19.672;2023-02-03T04:52:30;101182.13;;;-0.92;100.00
61908;BME280;47864;52.526;19.672;2023-02-03T04:54:32;101213.00;;;-0.63;100.00
61908;BME280;47864;52.526;19.672;2023-02-03T04:56:33;101208.03;;;-0.69;100.00
61908;BME280;47864;52.526;19.672;2023-02-03T04:58:35;101218.78;;;-0.56;100.00
61908;BME280;47864;52.526;19.672;2023-02-03T05:00:37;101187.22;;;-0.69;100.00
61908;BME280;47864;52.526;19.672;2023-02-03T05:02:39;101222.78;;;-0.68;100.00
61908;BME280;47864;52.526;19.672;2023-02-03T05:04:40;101201.47;;;-0.78;100.00
61908;BME280;47864;52.526;19.672;2023-02-03T05:06:42;101176.25;;;-0.97;100.00
61908;BME280;47864;52.526;19.672;2023-02-03T05:08:43;101201.25;;;-0.93;100.00
61908;BME280;47864;52.526;19.672;2023-02-03T05:10:47;101163.88;;;-1.12;100.00
61908;BME280;47864;52.526;19.672;2023-02-03T05:12:49;101188.88;;;-0.88;100.00
61908;BME280;47864;52.526;19.672;2023-02-03T05:14:50;101158.47;;;-1.08;100.00
61908;BME280;47864;52.526;19.672;2023-02-03T05:16:51;101178.47;;;-1.08;100.00
61908;BME280;47864;52.526;19.672;2023-02-03T05:18:53;101167.44;;;-1.15;100.00
61908;BME280;47864;52.526;19.672;2023-02-03T05:20:55;101167.16;;;-1.07;100.00
61908;BME280;47864;52.526;19.672;2023-02-03T05:22:57;101140.59;;;-1.16;100.00
61908;BME280;47864;52.526;19.672;2023-02-03T05:24:58;101134.84;;;-1.24;100.00
61908;BME280;47864;52.526;19.672;2023-02-03T05:27:00;101154.97;;;-1.29;100.00
61908;BME280;47864;52.526;19.672;2023-02-03T05:29:02;101155.53;;;-1.21;100.00
61908;BME280;47864;52.526;19.672;2023-02-03T05:31:04;101142.81;;;-1.28;100.00
61908;BME280;47864;52.526;19.672;2023-02-03T05:33:06;101136.78;;;-1.29;100.00
61908;BME280;47864;52.526;19.672;2023-02-03T05:35:07;101147.97;;;-1.06;100.00
61908;BME280;47864;52.526;19.672;2023-02-03T05:37:09;101151.25;;;-1.01;100.00
61908;BME280;47864;52.526;19.672;2023-02-03T05:39:10;101142.59;;;-1.02;100.00
61908;BME280;47864;52.526;19.672;2023-02-03T05:41:12;101140.78;;;-1.00;100.00
61908;BME280;47864;52.526;19.672;2023-02-03T05:43:13;101137.66;;;-1.08;100.00
61908;BME280;47864;52.526;19.672;2023-02-03T05:45:15;101130.56;;;-1.04;100.00
61908;BME280;47864;52.526;19.672;2023-02-03T05:47:17;101125.22;;;-1.01;100.00
61908;BME280;47864;52.526;19.672;2023-02-03T05:49:19;101100.38;;;-1.08;100.00
61908;BME280;47864;52.526;19.672;2023-02-03T05:51:20;101128.84;;;-1.05;100.00
61908;BME280;47864;52.526;19.672;2023-02-03T05:53:22;101121.25;;;-1.10;100.00
61908;BME280;47864;52.526;19.672;2023-02-03T05:55:23;101101.72;;;-1.20;100.00
61908;BME280;47864;52.526;19.672;2023-02-03T05:57:25;101105.16;;;-1.20;100.00
61908;BME280;47864;52.526;19.672;2023-02-03T05:59:27;101122.25;;;-0.92;100.00
61908;BME280;47864;52.526;19.672;2023-02-03T06:01:28;101109.41;;;-0.97;100.00
61908;BME280;47864;52.526;19.672;2023-02-03T06:03:30;101054.41;;;-1.30;100.00
61908;BME280;47864;52.526;19.672;2023-02-03T06:05:32;101109.34;;;-0.95;100.00
61908;BME280;47864;52.526;19.672;2023-02-03T06:07:34;101094.94;;;-1.04;100.00
61908;BME280;47864;52.526;19.672;2023-02-03T06:09:36;101095.81;;;-1.24;100.00
61908;BME280;47864;52.526;19.672;2023-02-03T06:11:37;101121.63;;;-0.99;100.00
61908;BME280;47864;52.526;19.672;2023-02-03T06:13:39;101100.22;;;-1.05;100.00
61908;BME280;47864;52.526;19.672;2023-02-03T06:15:41;101089.16;;;-1.10;100.00
61908;BME280;47864;52.526;19.672;2023-02-03T06:17:44;101114.81;;;-1.01;100.00
61908;BME280;47864;52.526;19.672;2023-02-03T06:19:46;101104.78;;;-1.10;100.00
61908;BME280;47864;52.526;19.672;2023-02-03T06:21:47;101089.16;;;-1.10;100.00
61908;BME280;47864;52.526;19.672;2023-02-03T06:23:49;101106.94;;;-1.00;100.00
61908;BME280;47864;52.526;19.672;2023-02-03T06:25:51;101078.63;;;-1.28;100.00
61908;BME280;47864;52.526;19.672;2023-02-03T06:27:52;101102.25;;;-1.12;100.00
61908;BME280;47864;52.526;19.672;2023-02-03T06:29:54;101099.31;;;-1.04;100.00
61908;BME280;47864;52.526;19.672;2023-02-03T06:31:55;101082.91;;;-1.06;100.00
61908;BME280;47864;52.526;19.672;2023-02-03T06:33:57;101096.84;;;-1.07;100.00
61908;BME280;47864;52.526;19.672;2023-02-03T06:35:58;101084.38;;;-0.99;100.00
61908;BME280;47864;52.526;19.672;2023-02-03T06:38:00;101076.47;;;-0.98;100.00
61908;BME280;47864;52.526;19.672;2023-02-03T06:40:02;101071.34;;;-0.99;100.00
61908;BME280;47864;52.526;19.672;2023-02-03T06:42:03;101039.88;;;-1.15;100.00
61908;BME280;47864;52.526;19.672;2023-02-03T06:44:05;101063.09;;;-0.90;100.00
61908;BME280;47864;52.526;19.672;2023-02-03T06:46:07;101050.19;;;-0.92;100.00
61908;BME280;47864;52.526;19.672;2023-02-03T06:48:08;101054.22;;;-0.66;100.00
61908;BME280;47864;52.526;19.672;2023-02-03T06:50:12;101047.41;;;-0.68;100.00
61908;BME280;47864;52.526;19.672;2023-02-03T06:52:14;101025.28;;;-0.79;100.00
61908;BME280;47864;52.526;19.672;2023-02-03T06:54:16;101041.19;;;-0.66;100.00
61908;BME280;47864;52.526;19.672;2023-02-03T06:56:17;101040.66;;;-0.54;100.00
61908;BME280;47864;52.526;19.672;2023-02-03T06:58:18;101000.06;;;-0.78;100.00
61908;BME280;47864;52.526;19.672;2023-02-03T07:00:20;101033.91;;;-0.58;100.00
61908;BME280;47864;52.526;19.672;2023-02-03T07:02:22;101026.28;;;-0.44;100.00
61908;BME280;47864;52.526;19.672;2023-02-03T07:04:23;101025.03;;;-0.35;100.00
61908;BME280;47864;52.526;19.672;2023-02-03T07:06:25;101025.94;;;-0.36;100.00
61908;BME280;47864;52.526;19.672;2023-02-03T07:08:26;101020.97;;;-0.23;100.00
61908;BME280;47864;52.526;19.672;2023-02-03T07:10:28;100985.88;;;-0.52;100.00
61908;BME280;47864;52.526;19.672;2023-02-03T07:12:30;101014.31;;;-0.48;100.00
61908;BME280;47864;52.526;19.672;2023-02-03T07:14:32;101005.28;;;-0.41;100.00
61908;BME280;47864;52.526;19.672;2023-02-03T07:16:33;101004.78;;;-0.49;100.00
61908;BME280;47864;52.526;19.672;2023-02-03T07:18:34;100992.41;;;-0.44;100.00
61908;BME280;47864;52.526;19.672;2023-02-03T07:20:47;100986.00;;;-0.36;100.00
61908;BME280;47864;52.526;19.672;2023-02-03T07:22:54;100974.72;;;-0.18;100.00
61908;BME280;47864;52.526;19.672;2023-02-03T07:24:55;100975.81;;;-0.24;100.00
61908;BME280;47864;52.526;19.672;2023-02-03T07:26:57;100964.03;;;-0.14;100.00
61908;BME280;47864;52.526;19.672;2023-02-03T07:28:59;100966.28;;;-0.06;100.00
61908;BME280;47864;52.526;19.672;2023-02-03T07:31:01;100958.00;;;0.03;100.00
61908;BME280;47864;52.526;19.672;2023-02-03T07:33:03;100958.47;;;-0.06;100.00
61908;BME280;47864;52.526;19.672;2023-02-03T07:35:05;100955.06;;;-0.08;100.00
61908;BME280;47864;52.526;19.672;2023-02-03T07:37:06;100963.22;;;0.03;100.00
61908;BME280;47864;52.526;19.672;2023-02-03T07:39:08;100949.34;;;0.03;100.00
61908;BME280;47864;52.526;19.672;2023-02-03T07:41:10;100944.75;;;0.08;100.00
61908;BME280;47864;52.526;19.672;2023-02-03T07:43:11;100932.09;;;0.00;100.00
61908;BME280;47864;52.526;19.672;2023-02-03T07:45:14;100947.81;;;-0.02;100.00
61908;BME280;47864;52.526;19.672;2023-02-03T07:47:16;100939.81;;;0.02;100.00
61908;BME280;47864;52.526;19.672;2023-02-03T07:49:18;100917.44;;;-0.03;100.00
61908;BME280;47864;52.526;19.672;2023-02-03T07:51:20;100891.13;;;-0.15;100.00
61908;BME280;47864;52.526;19.672;2023-02-03T07:53:21;100935.91;;;0.10;100.00
61908;BME280;47864;52.526;19.672;2023-02-03T07:55:22;100930.94;;;0.06;100.00
61908;BME280;47864;52.526;19.672;2023-02-03T07:57:24;100924.25;;;0.17;100.00
61908;BME280;47864;52.526;19.672;2023-02-03T07:59:25;100905.84;;;0.03;100.00
61908;BME280;47864;52.526;19.672;2023-02-03T08:01:27;100917.59;;;0.29;100.00
61908;BME280;47864;52.526;19.672;2023-02-03T08:03:28;100913.44;;;0.25;100.00
61908;BME280;47864;52.526;19.672;2023-02-03T08:05:31;100908.31;;;0.23;100.00
61908;BME280;47864;52.526;19.672;2023-02-03T08:07:32;100876.84;;;0.09;100.00
61908;BME280;47864;52.526;19.672;2023-02-03T08:09:35;100875.31;;;0.22;100.00
61908;BME280;47864;52.526;19.672;2023-02-03T08:11:37;100885.88;;;0.36;100.00
61908;BME280;47864;52.526;19.672;2023-02-03T08:13:38;100884.50;;;0.47;100.00
61908;BME280;47864;52.526;19.672;2023-02-03T08:15:40;100858.38;;;0.31;100.00
61908;BME280;47864;52.526;19.672;2023-02-03T08:17:41;100866.25;;;0.29;100.00
61908;BME280;47864;52.526;19.672;2023-02-03T08:19:43;100842.84;;;0.28;100.00
61908;BME280;47864;52.526;19.672;2023-02-03T08:21:44;100850.31;;;0.18;100.00
61908;BME280;47864;52.526;19.672;2023-02-03T08:23:46;100862.78;;;0.46;100.00
61908;BME280;47864;52.526;19.672;2023-02-03T08:25:51;100858.41;;;0.47;100.00
61908;BME280;47864;52.526;19.672;2023-02-03T08:27:53;100855.34;;;0.38;100.00
61908;BME280;47864;52.526;19.672;2023-02-03T08:29:54;100828.19;;;0.25;100.00
61908;BME280;47864;52.526;19.672;2023-02-03T08:31:56;100835.41;;;0.37;100.00
61908;BME280;47864;52.526;19.672;2023-02-03T08:33:57;100818.91;;;0.37;100.00
61908;BME280;47864;52.526;19.672;2023-02-03T08:36:16;100830.03;;;0.41;100.00
61908;BME280;47864;52.526;19.672;2023-02-03T08:38:18;100824.91;;;0.22;100.00
61908;BME280;47864;52.526;19.672;2023-02-03T08:40:20;100814.13;;;0.45;100.00
61908;BME280;47864;52.526;19.672;2023-02-03T08:42:21;100801.88;;;0.30;100.00
61908;BME280;47864;52.526;19.672;2023-02-03T08:44:23;100800.63;;;0.37;100.00
61908;BME280;47864;52.526;19.672;2023-02-03T08:46:24;100792.97;;;0.34;100.00
61908;BME280;47864;52.526;19.672;2023-02-03T08:48:25;100800.44;;;0.57;100.00
61908;BME280;47864;52.526;19.672;2023-02-03T08:50:27;100798.47;;;0.61;100.00
61908;BME280;47864;52.526;19.672;2023-02-03T08:52:29;100767.66;;;0.52;100.00
61908;BME280;47864;52.526;19.672;2023-02-03T08:54:31;100757.63;;;0.60;100.00
61908;BME280;47864;52.526;19.672;2023-02-03T08:56:33;100746.00;;;0.50;100.00
61908;BME280;47864;52.526;19.672;2023-02-03T08:58:35;100766.81;;;0.83;100.00
61908;BME280;47864;52.526;19.672;2023-02-03T09:00:38;100768.59;;;0.82;100.00
61908;BME280;47864;52.526;19.672;2023-02-03T09:02:40;100760.25;;;0.75;100.00
61908;BME280;47864;52.526;19.672;2023-02-03T09:04:45;100759.09;;;0.81;100.00
61908;BME280;47864;52.526;19.672;2023-02-03T09:06:47;100743.75;;;0.75;100.00
61908;BME280;47864;52.526;19.672;2023-02-03T09:08:49;100760.84;;;0.81;100.00
61908;BME280;47864;52.526;19.672;2023-02-03T09:10:50;100716.13;;;0.24;100.00
61908;BME280;47864;52.526;19.672;2023-02-03T09:12:52;100727.44;;;0.40;100.00
61908;BME280;47864;52.526;19.672;2023-02-03T09:14:53;100739.72;;;0.54;100.00
61908;BME280;47864;52.526;19.672;2023-02-03T09:16:54;100742.47;;;0.51;100.00
61908;BME280;47864;52.526;19.672;2023-02-03T09:18:56;100746.34;;;0.59;100.00
61908;BME280;47864;52.526;19.672;2023-02-03T09:21:02;100741.91;;;0.61;100.00
61908;BME280;47864;52.526;19.672;2023-02-03T09:23:03;100724.06;;;0.54;100.00
61908;BME280;47864;52.526;19.672;2023-02-03T09:25:06;100713.19;;;0.46;100.00
61908;BME280;47864;52.526;19.672;2023-02-03T09:27:07;100727.16;;;0.60;100.00
61908;BME280;47864;52.526;19.672;2023-02-03T09:29:09;100702.00;;;0.44;100.00
61908;BME280;47864;52.526;19.672;2023-02-03T09:31:14;100705.84;;;0.68;100.00
61908;BME280;47864;52.526;19.672;2023-02-03T09:33:16;100711.56;;;0.90;100.00
61908;BME280;47864;52.526;19.672;2023-02-03T09:35:18;100670.25;;;0.51;100.00
61908;BME280;47864;52.526;19.672;2023-02-03T09:37:19;100691.53;;;0.75;100.00
61908;BME280;47864;52.526;19.672;2023-02-03T09:39:21;100662.69;;;0.62;100.00
61908;BME280;47864;52.526;19.672;2023-02-03T09:41:48;100684.34;;;0.94;100.00
61908;BME280;47864;52.526;19.672;2023-02-03T09:44:03;100659.16;;;0.93;100.00
61908;BME280;47864;52.526;19.672;2023-02-03T09:46:21;100649.28;;;0.53;100.00
61908;BME280;47864;52.526;19.672;2023-02-03T09:48:27;100601.19;;;0.27;100.00
61908;BME280;47864;52.526;19.672;2023-02-03T09:50:34;100657.78;;;0.72;100.00
61908;BME280;47864;52.526;19.672;2023-02-03T09:52:39;100649.09;;;0.71;100.00
61908;BME280;47864;52.526;19.672;2023-02-03T09:56:43;100615.78;;;0.61;100.00
61908;BME280;47864;52.526;19.672;2023-02-03T09:58:44;100601.56;;;0.51;100.00
61908;BME280;47864;52.526;19.672;2023-02-03T10:00:52;100616.56;;;0.77;100.00
61908;BME280;47864;52.526;19.672;2023-02-03T10:03:06;100606.38;;;0.88;100.00
61908;BME280;47864;52.526;19.672;2023-02-03T10:05:19;100600.66;;;0.82;100.00
61908;BME280;47864;52.526;19.672;2023-02-03T10:09:59;100553.59;;;0.53;100.00
61908;BME280;47864;52.526;19.672;2023-02-03T10:12:29;100578.00;;;0.82;100.00
61908;BME280;47864;52.526;19.672;2023-02-03T10:21:52;100537.16;;;0.81;100.00
61908;BME280;47864;52.526;19.672;2023-02-03T10:23:55;100534.06;;;0.74;100.00
61908;BME280;47864;52.526;19.672;2023-02-03T10:25:58;100520.75;;;0.93;100.00
61908;BME280;47864;52.526;19.672;2023-02-03T10:28:04;100519.75;;;0.96;100.00
61908;BME280;47864;52.526;19.672;2023-02-03T10:30:30;100521.22;;;1.00;100.00
61908;BME280;47864;52.526;19.672;2023-02-03T10:32:34;100507.53;;;0.96;100.00
61908;BME280;47864;52.526;19.672;2023-02-03T10:34:36;100472.44;;;1.00;100.00
61908;BME280;47864;52.526;19.672;2023-02-03T10:39:03;100473.75;;;1.07;100.00
61908;BME280;47864;52.526;19.672;2023-02-03T10:41:08;100477.56;;;1.16;100.00
61908;BME280;47864;52.526;19.672;2023-02-03T10:43:10;100463.50;;;1.04;100.00
61908;BME280;47864;52.526;19.672;2023-02-03T10:45:12;100442.41;;;1.07;100.00
61908;BME280;47864;52.526;19.672;2023-02-03T10:49:17;100437.84;;;0.83;100.00
61908;BME280;47864;52.526;19.672;2023-02-03T10:51:26;100442.41;;;0.93;100.00
61908;BME280;47864;52.526;19.672;2023-02-03T10:53:33;100427.69;;;0.92;100.00
61908;BME280;47864;52.526;19.672;2023-02-03T10:55:35;100426.06;;;1.18;100.00
61908;BME280;47864;52.526;19.672;2023-02-03T10:57:37;100402.13;;;0.97;100.00
61908;BME280;47864;52.526;19.672;2023-02-03T10:59:43;100411.94;;;0.94;100.00
61908;BME280;47864;52.526;19.672;2023-02-03T11:01:46;100401.22;;;0.98;100.00
61908;BME280;47864;52.526;19.672;2023-02-03T11:06:13;100395.81;;;0.87;100.00
61908;BME280;47864;52.526;19.672;2023-02-03T11:08:15;100364.91;;;0.94;100.00